Time;durP1;ratioP1;P1;durP2;ratioP2;P2;SDS_P1;SDS_P2;PMS_P1;PMS_P2;Temp;Humidity;BMP_temperature;BMP_pressure;BME280_temperature;BME280_humidity;BME280_pressure;Samples;Min_cycle;Max_cycle;Signal;HPM_P1;HPM_P2
2021/07/05 00:02:23;;;;;;;18.15;11.77;;;;;;;15.62;90.33;100990.13;5002365;28;20069;-84
2021/07/05 00:05:48;;;;;;;16.05;9.73;;;;;;;15.61;90.37;100991.00;4938331;28;20038;-84
2021/07/05 00:09:31;;;;;;;;;;;;;;;;;;;;;
2021/07/05 00:16:10;;;;;;;9.88;4.60;;;;;;;15.49;89.02;100973.31;4930638;28;20038;-84
2021/07/05 00:19:15;;;;;;;;;;;;;;;;;;;;;
2021/07/05 00:22:23;;;;;;;13.73;4.50;;;;;;;15.32;89.05;100966.28;5035725;28;20053;-83
2021/07/05 00:25:11;;;;;;;11.43;5.15;;;;;;;15.28;89.09;100968.97;5029250;28;20060;-84
2021/07/05 00:27:46;;;;;;;11.23;4.80;;;;;;;15.24;89.78;100967.19;5042096;28;20399;-82
2021/07/05 00:30:46;;;;;;;15.10;5.10;;;;;;;15.26;89.80;100970.72;5056312;28;20056;-83
2021/07/05 00:33:41;;;;;;;12.30;4.95;;;;;;;15.30;89.88;100967.16;5054927;28;20025;-86
2021/07/05 00:40:12;;;;;;;12.60;3.70;;;;;;;15.27;89.34;100972.47;5052334;28;20044;-82
2021/07/05 00:43:44;;;;;;;15.57;4.25;;;;;;;15.20;89.25;100966.28;5055131;28;20051;-89
2021/07/05 00:46:46;;;;;;;17.02;3.58;;;;;;;15.16;89.16;100964.53;5051585;28;20287;-83
2021/07/05 00:49:42;;;;;;;;;;;;;;;;;;;;;
2021/07/05 00:53:03;;;;;;;18.67;4.55;;;;;;;15.03;88.14;100963.66;5037411;28;20363;-87
2021/07/05 00:56:20;;;;;;;12.02;3.25;;;;;;;14.98;88.02;100954.84;5042538;28;20043;-83
2021/07/05 01:06:50;;;;;;;20.63;3.90;;;;;;;14.79;88.59;100948.63;5019770;28;20029;-87
2021/07/05 01:09:38;;;;;;;;;;;;;;;;;;;;;
2021/07/05 01:12:33;;;;;;;16.88;4.07;;;;;;;14.75;88.54;100941.56;5049303;28;20041;-86
2021/07/05 01:15:43;;;;;;;17.33;4.07;;;;;;;14.78;87.62;100944.22;5040906;28;20025;-84
2021/07/05 01:22:07;;;;;;;15.55;4.28;;;;;;;14.71;88.15;100937.16;5039361;28;20067;-85
2021/07/05 01:25:04;;;;;;;;;;;;;;;14.69;88.02;100934.50;5047542;28;20502;-83
2021/07/05 01:28:15;;;;;;;21.20;5.45;;;;;;;14.66;88.03;100927.44;5042814;28;19927;-84
2021/07/05 01:31:24;;;;;;;10.52;3.95;;;;;;;14.64;87.67;100929.19;5034342;28;20059;-89
2021/07/05 01:33:52;;;;;;;14.57;4.32;;;;;;;14.63;87.54;100945.97;5048102;28;20438;-88
2021/07/05 01:36:23;;;;;;;14.75;4.68;;;;;;;14.67;87.33;100936.25;5044189;28;20497;-84
2021/07/05 01:42:21;;;;;;;17.27;4.50;;;;;;;14.67;86.20;100933.59;5049046;28;20040;-89
2021/07/05 01:48:45;;;;;;;16.50;4.93;;;;;;;14.62;86.74;100927.38;5045821;28;20033;-85
2021/07/05 01:55:30;;;;;;;;;;;;;;;;;;;;;
2021/07/05 01:58:25;;;;;;;15.70;4.63;;;;;;;14.59;86.74;100920.31;5038438;28;20037;-88
2021/07/05 02:04:30;;;;;;;16.92;5.00;;;;;;;14.57;86.50;100913.25;5049566;28;19917;-85
2021/07/05 02:07:44;;;;;;;19.35;4.45;;;;;;;14.54;86.96;100905.31;5040460;28;20132;-85
2021/07/05 02:10:55;;;;;;;;;;;;;;;;;;;;;
2021/07/05 02:13:47;;;;;;;14.65;5.05;;;;;;;14.51;87.11;100914.13;4973368;28;20061;-84
2021/07/05 02:20:02;;;;;;;15.25;4.60;;;;;;;14.50;87.22;100926.50;5030598;28;20337;-87
2021/07/05 02:23:10;;;;;;;17.65;4.55;;;;;;;14.52;87.12;100928.28;5040540;28;20056;-84
2021/07/05 02:26:25;;;;;;;;;;;;;;;;;;;;;
2021/07/05 02:29:37;;;;;;;14.13;5.05;;;;;;;14.54;87.00;100916.81;5044979;28;20037;-84
2021/07/05 02:32:28;;;;;;;19.85;5.00;;;;;;;14.59;87.15;100922.09;5032684;28;20064;-80
2021/07/05 02:36:05;;;;;;;16.15;4.93;;;;;;;14.57;87.02;100911.50;5022321;28;20064;-86
2021/07/05 02:38:42;;;;;;;15.65;5.75;;;;;;;14.57;87.18;100918.53;5022331;28;20037;-86
2021/07/05 02:41:21;;;;;;;17.25;5.30;;;;;;;14.57;87.24;100914.16;5047199;28;20025;-81
2021/07/05 02:44:18;;;;;;;22.60;6.18;;;;;;;14.55;87.01;100920.31;5046929;28;20042;-84
2021/07/05 02:47:35;;;;;;;15.88;5.07;;;;;;;14.50;87.44;100910.59;5032633;28;20084;-83
2021/07/05 02:53:43;;;;;;;16.45;5.65;;;;;;;14.53;87.24;100916.78;5002335;28;20286;-85
2021/07/05 02:56:25;;;;;;;13.88;4.70;;;;;;;14.53;87.05;100919.44;5028656;28;20493;-81
2021/07/05 02:59:18;;;;;;;16.38;5.25;;;;;;;14.54;87.28;100906.22;5050524;28;20013;-81
2021/07/05 03:02:38;;;;;;;10.40;5.15;;;;;;;14.56;86.87;100909.72;5045548;28;20064;-82
2021/07/05 03:05:47;;;;;;;20.60;6.30;;;;;;;14.54;87.44;100911.50;5046675;28;20045;-86
2021/07/05 03:08:40;;;;;;;19.38;6.47;;;;;;;14.53;87.01;100911.47;5048887;28;20021;-90
2021/07/05 03:11:34;;;;;;;11.77;5.70;;;;;;;14.53;86.41;100908.84;5050797;28;20435;-87
2021/07/05 03:14:30;;;;;;;13.90;5.57;;;;;;;14.56;86.75;100903.56;5032629;28;20047;-85
2021/07/05 03:17:26;;;;;;;15.18;5.60;;;;;;;14.58;85.92;100901.78;5042256;28;20041;-84
2021/07/05 03:20:32;;;;;;;18.08;6.60;;;;;;;14.54;86.18;100900.91;5042820;28;20125;-86
2021/07/05 03:23:20;;;;;;;18.25;5.88;;;;;;;14.50;86.24;100893.81;5041184;28;20045;-83
2021/07/05 03:29:52;;;;;;;17.95;5.72;;;;;;;14.49;85.86;100908.84;5029258;28;20053;-83
2021/07/05 03:32:52;;;;;;;17.42;5.43;;;;;;;14.46;85.99;100911.50;5044928;28;20040;-84
2021/07/05 03:35:35;;;;;;;16.08;5.43;;;;;;;14.45;86.01;100911.50;5030820;28;20021;-83
2021/07/05 03:38:21;;;;;;;15.20;4.78;;;;;;;14.43;86.10;100914.13;5048241;28;20044;-85
2021/07/05 03:41:07;;;;;;;20.27;5.75;;;;;;;14.43;86.22;100914.13;5044350;28;20420;-84
2021/07/05 03:44:03;;;;;;;15.07;6.72;;;;;;;14.43;85.97;100921.19;5051608;28;20041;-84
2021/07/05 03:47:14;;;;;;;13.63;5.60;;;;;;;14.41;85.75;100925.59;5047648;28;20120;-87
2021/07/05 03:50:20;;;;;;;16.88;6.38;;;;;;;14.36;85.75;100928.22;5044344;28;20017;-90
2021/07/05 03:52:55;;;;;;;22.27;6.38;;;;;;;14.39;85.73;100916.75;5049713;28;20033;-83
2021/07/05 03:55:29;;;;;;;14.52;5.72;;;;;;;14.36;85.37;100928.22;5047733;28;20454;-85
2021/07/05 03:58:23;;;;;;;13.15;5.78;;;;;;;14.39;85.02;100917.66;5039371;28;20060;-84
2021/07/05 04:01:18;;;;;;;;;;;;;;;14.36;85.81;100912.34;5050677;28;20505;-80
2021/07/05 04:04:23;;;;;;;19.48;5.72;;;;;;;14.35;85.31;100902.63;5044835;28;20617;-83
2021/07/05 04:07:22;;;;;;;16.73;5.57;;;;;;;14.35;84.56;100913.22;5031172;28;20032;-91
2021/07/05 04:10:37;;;;;;;;;;;;;;;;;;;;;
2021/07/05 04:13:30;;;;;;;14.52;5.05;;;;;;;14.36;84.59;100901.75;5047754;28;20048;-82
2021/07/05 04:16:32;;;;;;;17.75;5.38;;;;;;;14.31;84.82;100900.84;5052091;28;20498;-86
2021/07/05 04:19:32;;;;;;;25.55;5.35;;;;;;;14.34;84.24;100892.94;5049428;28;20041;-89
2021/07/05 04:22:53;;;;;;;;;;;;;;;;;;;;;
2021/07/05 04:25:59;;;;;;;12.93;4.90;;;;;;;14.32;84.71;100881.44;5036362;28;20043;-88
2021/07/05 04:28:53;;;;;;;17.63;6.13;;;;;;;14.34;84.19;100880.56;5031022;28;20061;-87
2021/07/05 04:31:55;;;;;;;19.33;5.50;;;;;;;14.38;84.37;100877.91;5026662;28;20444;-81
2021/07/05 04:34:39;;;;;;;;;;;;;;;;;;;;;
2021/07/05 04:37:55;;;;;;;19.67;5.57;;;;;;;14.38;84.26;100886.78;5036940;28;20099;-83
2021/07/05 04:44:19;;;;;;;12.25;6.00;;;;;;;14.37;84.31;100882.34;5023193;28;20715;-82
2021/07/05 04:47:11;;;;;;;19.23;6.13;;;;;;;14.37;84.18;100882.34;5004082;28;20045;-85
2021/07/05 04:50:09;;;;;;;17.10;6.22;;;;;;;14.37;84.40;100881.47;5035074;28;20056;-82
2021/07/05 04:56:29;;;;;;;17.27;6.88;;;;;;;14.41;83.20;100883.25;5029392;28;20100;-83
2021/07/05 04:59:24;;;;;;;18.38;5.45;;;;;;;14.42;83.75;100888.53;5029668;28;20038;-84
2021/07/05 05:02:36;;;;;;;19.10;5.68;;;;;;;14.41;83.77;100894.72;5035739;28;20034;-84
2021/07/05 05:05:25;;;;;;;17.58;6.10;;;;;;;14.42;84.08;100892.94;5044182;28;20036;-82
2021/07/05 05:08:49;;;;;;;18.13;4.97;;;;;;;14.46;83.51;100887.66;5029038;28;20037;-82
2021/07/05 05:12:02;;;;;;;;;;;;;;;;;;;;;
2021/07/05 05:15:23;;;;;;;;;;;;;;;;;;;;;
2021/07/05 05:18:43;;;;;;;15.13;4.93;;;;;;;14.63;83.40;100900.06;5034255;28;20280;-85
2021/07/05 05:21:50;;;;;;;17.17;4.78;;;;;;;14.74;82.07;100894.78;5027355;28;20040;-90
2021/07/05 05:25:04;;;;;;;;;;;;;;;;;;;;;
2021/07/05 05:27:59;;;;;;;;;;;;;;;;;;;;;
2021/07/05 05:34:59;;;;;;;20.88;5.53;;;;;;;14.91;81.51;100900.09;4984123;28;20046;-82
2021/07/05 05:44:05;;;;;;;13.57;4.57;;;;;;;14.94;80.66;100911.53;4973742;28;20144;-87
2021/07/05 05:47:19;;;;;;;17.45;4.95;;;;;;;15.01;81.07;100901.81;4978229;28;20046;-84
2021/07/05 05:50:09;;;;;;;15.60;5.15;;;;;;;15.06;80.93;100900.06;4988917;28;20476;-83
2021/07/05 05:53:04;;;;;;;16.15;4.47;;;;;;;15.06;80.39;100896.53;4974610;28;20138;-85
2021/07/05 05:56:05;;;;;;;13.60;4.65;;;;;;;15.00;80.25;100902.69;4991156;28;20038;-85
2021/07/05 05:59:19;;;;;;;11.98;4.72;;;;;;;15.50;78.84;100901.75;4983948;28;20098;-82
2021/07/05 06:01:57;;;;;;;14.45;4.25;;;;;;;16.35;75.48;100903.16;4964132;28;20039;-83
2021/07/05 06:04:32;;;;;;;15.40;4.70;;;;;;;17.00;73.60;100910.66;5014350;28;20052;-84
2021/07/05 06:07:30;;;;;;;12.77;4.43;;;;;;;17.86;69.95;100904.41;5051630;28;20028;-83
2021/07/05 06:18:48;;;;;;;;;;;;;;;;;;;;;
2021/07/05 06:21:26;;;;;;;12.63;3.42;;;;;;;19.12;64.99;100908.78;4934738;28;20165;-82
2021/07/05 06:23:51;;;;;;;11.57;3.30;;;;;;;19.58;64.10;100900.84;5018339;28;20043;-80
2021/07/05 06:26:17;;;;;;;16.92;3.85;;;;;;;19.71;63.24;100905.00;5051014;28;20108;-80
2021/07/05 06:28:42;;;;;;;11.05;3.10;;;;;;;19.87;63.02;100903.81;5052037;28;20433;-81
2021/07/05 06:31:08;;;;;;;14.40;3.38;;;;;;;20.01;62.31;100905.31;5050167;28;20518;-81
2021/07/05 06:33:53;;;;;;;15.82;3.33;;;;;;;19.43;64.59;100910.88;5049869;28;20504;-83
2021/07/05 06:36:19;;;;;;;13.20;2.90;;;;;;;18.74;65.01;100910.28;5033472;28;20032;-81
2021/07/05 06:38:44;;;;;;;14.00;3.47;;;;;;;18.20;67.19;100913.75;5042867;28;20032;-80
2021/07/05 06:41:10;;;;;;;11.88;3.70;;;;;;;17.89;68.96;100914.13;5041548;28;20044;-81
2021/07/05 06:43:38;;;;;;;14.50;3.40;;;;;;;17.79;68.64;100916.03;5047110;28;20516;-86
2021/07/05 06:46:04;;;;;;;13.43;3.50;;;;;;;17.95;68.56;100922.09;5044775;28;20115;-83
2021/07/05 06:48:29;;;;;;;16.55;3.40;;;;;;;18.34;67.53;100924.25;5038505;28;20104;-81
2021/07/05 06:50:59;;;;;;;10.60;3.50;;;;;;;18.53;67.00;100920.38;5031531;28;20170;-82
2021/07/05 06:53:26;;;;;;;18.13;3.70;;;;;;;18.53;66.43;100919.50;5020275;28;20033;-81
2021/07/05 06:55:51;;;;;;;15.23;3.60;;;;;;;18.40;66.48;100929.47;5036958;28;20025;-82
2021/07/05 06:58:17;;;;;;;11.73;3.72;;;;;;;18.05;68.28;100922.84;5027792;28;20550;-81
2021/07/05 07:00:45;;;;;;;17.52;3.88;;;;;;;17.95;68.82;100923.88;5037026;28;20059;-82
2021/07/05 07:03:13;;;;;;;10.82;3.65;;;;;;;18.14;68.33;100928.03;5035720;28;20044;-83
2021/07/05 07:05:39;;;;;;;12.48;3.58;;;;;;;18.31;67.22;100918.94;5033192;28;20068;-83
2021/07/05 07:08:08;;;;;;;8.75;3.50;;;;;;;18.53;67.51;100925.72;5039561;28;20041;-84
2021/07/05 07:10:33;;;;;;;13.25;3.53;;;;;;;18.67;66.92;100932.63;5043632;28;20063;-81
2021/07/05 07:13:00;;;;;;;14.02;3.38;;;;;;;18.58;66.83;100941.63;5038436;28;20025;-84
2021/07/05 07:15:41;;;;;;;17.45;3.47;;;;;;;18.61;67.23;100943.38;5038364;28;20029;-82
2021/07/05 07:20:41;;;;;;;16.20;3.13;;;;;;;18.59;66.28;100947.84;5033617;28;20125;-82
2021/07/05 07:23:06;;;;;;;9.23;3.03;;;;;;;18.61;66.98;100941.59;5042247;28;20024;-83
2021/07/05 07:25:46;;;;;;;8.13;3.03;;;;;;;18.74;66.04;100944.94;5036318;28;20033;-83
2021/07/05 07:28:12;;;;;;;11.80;3.80;;;;;;;18.69;66.67;100941.47;5037381;28;20471;-85
2021/07/05 07:30:38;;;;;;;13.63;3.65;;;;;;;18.76;67.82;100937.81;5038070;28;20044;-85
2021/07/05 07:33:03;;;;;;;7.05;3.47;;;;;;;18.69;65.94;100930.78;5043959;28;20052;-82
2021/07/05 07:35:35;;;;;;;16.33;3.88;;;;;;;19.04;67.33;100932.03;5043408;28;20036;-82
2021/07/05 07:38:04;;;;;;;12.07;4.22;;;;;;;19.53;66.24;100931.16;5037844;28;20522;-81
2021/07/05 07:40:54;;;;;;;12.43;4.15;;;;;;;19.92;63.87;100926.88;5038135;28;20032;-83
2021/07/05 07:43:32;;;;;;;17.40;3.80;;;;;;;20.26;61.89;100934.16;5034626;28;20029;-81
2021/07/05 07:46:00;;;;;;;16.23;3.67;;;;;;;20.28;59.97;100934.97;5036479;28;20044;-83
2021/07/05 07:48:32;;;;;;;11.45;3.92;;;;;;;19.98;61.30;100934.72;5033294;28;20029;-82
2021/07/05 07:51:18;;;;;;;12.65;3.78;;;;;;;19.53;64.05;100939.16;5036513;28;20028;-85
2021/07/05 07:53:46;;;;;;;15.60;5.05;;;;;;;19.35;64.73;100942.19;5040491;28;20029;-83
2021/07/05 07:56:32;;;;;;;14.18;4.28;;;;;;;19.16;65.95;100947.81;5032306;28;20111;-83
2021/07/05 07:59:02;;;;;;;12.77;4.13;;;;;;;19.21;63.67;100945.09;5034111;28;20025;-82
2021/07/05 08:01:30;;;;;;;10.02;4.35;;;;;;;19.08;66.35;100944.41;5035864;28;20551;-84
2021/07/05 08:04:01;;;;;;;9.55;4.32;;;;;;;18.96;66.01;100947.28;5037505;28;20161;-83
2021/07/05 08:06:33;;;;;;;17.08;4.50;;;;;;;18.97;65.52;100951.72;5036809;28;20025;-83
2021/07/05 08:09:13;;;;;;;15.65;4.65;;;;;;;18.91;66.55;100950.03;5035646;28;20116;-82
2021/07/05 08:14:47;;;;;;;12.95;4.53;;;;;;;18.88;66.24;100947.41;5037096;28;20053;-83
2021/07/05 08:17:19;;;;;;;11.48;4.00;;;;;;;18.93;65.52;100950.03;5037460;28;20059;-82
2021/07/05 08:19:48;;;;;;;11.05;4.68;;;;;;;18.86;65.96;100949.19;5038853;28;20639;-82
2021/07/05 08:22:17;;;;;;;13.00;4.53;;;;;;;19.08;65.11;100948.88;5033509;28;20033;-84
2021/07/05 08:24:42;;;;;;;10.70;4.78;;;;;;;19.34;64.70;100941.31;5039790;28;20067;-83
2021/07/05 08:27:14;;;;;;;10.55;4.00;;;;;;;19.40;64.31;100947.41;5019175;28;20541;-83
2021/07/05 08:29:46;;;;;;;11.38;3.95;;;;;;;19.23;65.09;100942.41;5031925;28;20025;-84
2021/07/05 08:32:17;;;;;;;8.32;4.07;;;;;;;19.25;64.93;100940.56;5040152;28;20096;-84
2021/07/05 08:34:47;;;;;;;10.98;4.45;;;;;;;19.18;65.17;100934.47;5036570;28;20029;-83
2021/07/05 08:37:13;;;;;;;11.30;4.80;;;;;;;18.94;64.82;100933.13;5010842;28;20056;-84
2021/07/05 08:39:44;;;;;;;11.25;4.13;;;;;;;19.01;64.83;100937.44;5034017;28;20024;-83
2021/07/05 08:42:25;;;;;;;11.43;3.80;;;;;;;19.43;63.92;100939.38;5044576;28;20025;-84
2021/07/05 08:44:57;;;;;;;9.23;3.55;;;;;;;20.19;63.04;100930.75;5040486;28;20025;-84
2021/07/05 08:47:26;;;;;;;14.93;3.77;;;;;;;20.33;61.98;100935.75;5044366;28;20051;-81
2021/07/05 08:49:52;;;;;;;12.07;4.47;;;;;;;20.55;62.55;100929.03;5037917;28;20086;-83
2021/07/05 08:52:30;;;;;;;;;;;;;;;;;;;;;
2021/07/05 08:55:05;;;;;;;11.30;3.22;;;;;;;20.22;60.96;100922.66;5033839;28;20048;-83
2021/07/05 08:57:45;;;;;;;13.40;3.67;;;;;;;20.04;61.77;100932.81;5041418;28;20033;-84
2021/07/05 09:00:24;;;;;;;12.05;4.95;;;;;;;19.82;63.03;100931.53;5037675;28;20353;-82
2021/07/05 09:02:58;;;;;;;20.52;3.65;;;;;;;19.45;65.02;100937.53;5041005;28;20179;-81
2021/07/05 09:05:24;;;;;;;16.00;4.20;;;;;;;19.66;63.19;100931.78;5038775;28;20074;-83
2021/07/05 09:08:11;;;;;;;9.90;3.42;;;;;;;19.85;63.38;100926.97;5036095;28;20387;-82
2021/07/05 09:10:47;;;;;;;11.27;3.70;;;;;;;20.21;63.01;100937.81;5033932;28;20560;-82
2021/07/05 09:13:24;;;;;;;11.68;3.20;;;;;;;20.32;60.97;100931.31;5035294;28;20025;-83
2021/07/05 09:16:29;;;;;;;14.43;3.28;;;;;;;20.45;59.91;100929.28;5042918;28;20128;-84
2021/07/05 09:18:55;;;;;;;13.00;3.28;;;;;;;20.67;59.93;100933.19;5036204;28;20065;-82
2021/07/05 09:21:47;;;;;;;12.80;3.67;;;;;;;21.47;57.48;100932.09;5040467;28;20021;-84
2021/07/05 09:24:34;;;;;;;12.25;3.13;;;;;;;21.78;56.96;100929.44;5041397;28;20051;-80
2021/07/05 09:27:23;;;;;;;11.73;3.03;;;;;;;21.75;56.05;100936.72;5040246;28;20070;-83
2021/07/05 09:30:21;;;;;;;5.80;2.67;;;;;;;22.35;55.36;100929.59;5029702;28;20029;-84
2021/07/05 09:32:48;;;;;;;7.68;2.67;;;;;;;22.57;53.70;100924.41;5027143;28;20045;-82
2021/07/05 09:35:17;;;;;;;9.20;2.97;;;;;;;22.31;53.71;100928.75;5019738;28;20149;-83
2021/07/05 09:38:01;;;;;;;11.40;2.58;;;;;;;22.13;53.09;100932.91;5016810;28;20025;-84
2021/07/05 09:40:32;;;;;;;8.13;2.58;;;;;;;21.53;54.72;100930.16;5018445;28;20041;-83
2021/07/05 09:42:58;;;;;;;7.45;2.28;;;;;;;21.47;53.98;100930.28;5022129;28;20549;-82
2021/07/05 09:45:27;;;;;;;9.57;2.28;;;;;;;21.52;53.76;100928.34;5020786;28;20029;-85
2021/07/05 09:48:31;;;;;;;7.90;2.55;;;;;;;21.34;56.73;100924.41;5000223;28;20039;-85
2021/07/05 09:51:14;;;;;;;6.00;2.63;;;;;;;21.20;55.25;100924.78;5021161;28;20132;-84
2021/07/05 09:53:50;;;;;;;9.05;2.10;;;;;;;21.42;56.05;100926.88;5003543;28;20064;-86
2021/07/05 10:00:08;;;;;;;6.90;2.35;;;;;;;23.65;50.80;100922.56;5010896;28;20132;-84
2021/07/05 10:02:35;;;;;;;6.57;2.22;;;;;;;24.09;51.31;100917.34;5022646;28;20060;-81
2021/07/05 10:05:15;;;;;;;13.35;2.65;;;;;;;24.16;48.67;100926.94;5019565;28;20033;-84
2021/07/05 10:07:56;;;;;;;6.65;2.13;;;;;;;23.83;48.68;100918.31;5019083;28;20042;-83
2021/07/05 10:10:24;;;;;;;7.55;2.33;;;;;;;23.54;49.97;100929.19;5021793;28;20032;-82
2021/07/05 10:13:18;;;;;;;10.90;2.35;;;;;;;22.94;50.44;100931.28;5018376;28;20471;-85
2021/07/05 10:15:54;;;;;;;6.88;2.35;;;;;;;22.22;51.46;100929.94;5018018;28;20621;-84
2021/07/05 10:18:21;;;;;;;9.52;2.63;;;;;;;21.87;53.90;100934.56;5027358;28;20037;-81
2021/07/05 10:20:50;;;;;;;10.48;2.10;;;;;;;21.50;52.67;100924.84;5018298;28;20033;-85
2021/07/05 10:23:16;;;;;;;7.90;2.28;;;;;;;21.22;54.56;100930.94;5020895;28;20128;-83
2021/07/05 10:25:49;;;;;;;6.38;2.78;;;;;;;20.97;54.13;100933.41;5006180;28;20032;-84
2021/07/05 10:28:28;;;;;;;8.40;2.08;;;;;;;20.90;52.93;100934.44;5002493;28;20091;-84
2021/07/05 10:30:57;;;;;;;9.15;2.47;;;;;;;20.81;56.40;100932.00;5030690;28;20399;-83
2021/07/05 10:33:23;;;;;;;5.00;2.30;;;;;;;20.97;53.67;100930.72;5049091;28;20037;-83
2021/07/05 10:35:53;;;;;;;3.22;1.67;;;;;;;20.85;52.34;100942.59;5049201;28;20028;-82
2021/07/05 10:39:01;;;;;;;3.70;1.55;;;;;;;20.76;53.78;100932.13;5041682;28;20029;-83
2021/07/05 10:41:57;;;;;;;5.63;1.80;;;;;;;20.72;54.23;100930.44;5040404;28;20052;-84
2021/07/05 10:44:44;;;;;;;5.80;1.95;;;;;;;20.58;54.93;100940.53;5046932;28;20021;-82
2021/07/05 10:47:10;;;;;;;11.10;2.35;;;;;;;20.19;55.45;100942.28;5045507;28;20048;-81
2021/07/05 10:49:46;;;;;;;8.95;2.50;;;;;;;20.02;57.31;100944.44;5046224;28;20430;-83
2021/07/05 10:52:16;;;;;;;8.50;2.72;;;;;;;19.82;59.39;100944.88;5044041;28;20029;-83
2021/07/05 10:54:57;;;;;;;8.88;2.65;;;;;;;19.59;60.64;100958.63;5050377;28;20483;-87
2021/07/05 10:57:46;;;;;;;6.93;2.80;;;;;;;19.30;62.29;100954.72;5051123;28;20029;-85
2021/07/05 11:00:42;;;;;;;10.13;3.10;;;;;;;18.77;66.22;100963.53;5049790;28;20037;-85
2021/07/05 11:03:38;;;;;;;6.93;3.42;;;;;;;18.35;68.97;100963.28;5047706;28;20045;-88
2021/07/05 11:06:40;;;;;;;8.02;5.78;;;;;;;18.00;71.94;100967.28;5048548;28;20494;-81
2021/07/05 11:09:07;;;;;;;14.65;5.38;;;;;;;17.94;72.86;100962.91;5043412;28;20113;-80
2021/07/05 11:11:34;;;;;;;10.13;5.22;;;;;;;17.95;73.45;100964.69;5048321;28;20518;-80
2021/07/05 11:14:34;;;;;;;10.57;6.03;;;;;;;18.12;71.83;100959.16;5046347;28;20029;-81
2021/07/05 11:17:04;;;;;;;7.50;5.22;;;;;;;18.40;71.30;100961.44;5044532;28;20029;-83
2021/07/05 11:19:46;;;;;;;10.70;4.90;;;;;;;18.59;71.46;100958.50;5035754;28;20061;-82
2021/07/05 11:22:26;;;;;;;9.93;5.07;;;;;;;18.87;70.43;100945.63;5025256;28;20029;-82
2021/07/05 11:25:28;;;;;;;12.02;5.88;;;;;;;19.38;68.49;100947.44;5040290;28;20124;-83
2021/07/05 11:27:59;;;;;;;13.55;5.05;;;;;;;19.76;68.70;100948.50;5040037;28;20049;-84
2021/07/05 11:30:28;;;;;;;12.75;4.45;;;;;;;20.13;67.00;100947.78;5042733;28;20032;-81
2021/07/05 11:32:56;;;;;;;10.13;4.45;;;;;;;20.64;64.75;100943.09;5018803;28;20056;-84
2021/07/05 11:35:34;;;;;;;10.77;4.05;;;;;;;21.19;63.00;100940.88;5021044;28;20519;-81
2021/07/05 11:38:11;;;;;;;8.27;4.65;;;;;;;21.35;60.17;100941.31;5029560;28;20025;-80
2021/07/05 11:40:46;;;;;;;13.35;4.85;;;;;;;21.28;60.82;100940.59;5020712;28;20021;-83
2021/07/05 11:43:46;;;;;;;;;;;;;;;;;;;;;
2021/07/05 11:46:25;;;;;;;10.02;3.83;;;;;;;20.75;60.80;100941.06;5012924;28;20484;-81
2021/07/05 11:49:14;;;;;;;13.30;4.43;;;;;;;20.34;64.29;100950.91;5014267;28;20038;-82
2021/07/05 11:51:56;;;;;;;8.60;4.20;;;;;;;20.21;63.30;100944.94;5014671;28;20083;-84
2021/07/05 11:54:35;;;;;;;6.40;3.25;;;;;;;20.02;63.30;100949.78;5003761;28;20070;-84
2021/07/05 11:57:13;;;;;;;9.35;3.65;;;;;;;19.91;64.20;100951.81;5021240;28;20029;-83
2021/07/05 12:00:28;;;;;;;6.78;3.33;;;;;;;19.98;63.20;100958.78;5020878;28;20061;-83
2021/07/05 12:03:25;;;;;;;6.18;3.03;;;;;;;19.91;64.12;100955.34;5004305;28;20041;-83
2021/07/05 12:06:03;;;;;;;10.05;3.72;;;;;;;20.02;63.47;100949.78;5012220;28;20045;-82
2021/07/05 12:08:28;;;;;;;5.00;3.33;;;;;;;19.88;62.85;100961.63;5030331;28;20186;-83
2021/07/05 12:11:29;;;;;;;9.02;3.92;;;;;;;19.97;63.27;100951.69;5034213;28;20535;-83
2021/07/05 12:14:18;;;;;;;7.00;3.60;;;;;;;20.21;62.75;100948.50;5027488;28;20481;-83
2021/07/05 12:20:18;;;;;;;8.88;3.50;;;;;;;21.09;61.45;100944.69;5027547;28;20471;-84
2021/07/05 12:23:20;;;;;;;6.80;3.40;;;;;;;21.43;59.14;100938.44;5027732;28;20048;-83
2021/07/05 12:25:52;;;;;;;3.92;3.10;;;;;;;21.14;61.08;100949.00;5026703;28;20450;-83
2021/07/05 12:29:00;;;;;;;6.00;3.67;;;;;;;20.59;61.09;100956.56;5034899;28;20017;-84
2021/07/05 12:31:55;;;;;;;4.80;3.13;;;;;;;20.48;60.84;100954.16;5027474;28;20053;-82
2021/07/05 12:34:39;;;;;;;5.43;3.50;;;;;;;20.17;63.67;100960.16;5044448;28;20037;-81
2021/07/05 12:37:46;;;;;;;5.60;3.47;;;;;;;20.26;61.95;100943.03;5037960;28;20386;-83
2021/07/05 12:40:20;;;;;;;5.25;3.58;;;;;;;20.17;62.52;100954.81;5048155;28;20064;-82
2021/07/05 12:43:48;;;;;;;5.50;2.70;;;;;;;20.29;62.67;100953.66;5039785;28;20060;-83
2021/07/05 12:46:32;;;;;;;8.85;3.67;;;;;;;20.06;62.72;100954.16;5046861;28;20036;-83
2021/07/05 12:49:33;;;;;;;8.05;3.13;;;;;;;19.88;63.06;100960.75;5049419;28;20506;-84
2021/07/05 12:52:33;;;;;;;4.03;2.75;;;;;;;19.67;62.22;100964.72;5046473;28;20037;-84
2021/07/05 12:55:47;;;;;;;;;;;;;;;;;;;;;
2021/07/05 12:58:55;;;;;;;4.80;2.83;;;;;;;19.57;63.14;100953.31;5038035;28;20048;-84
2021/07/05 13:01:32;;;;;;;5.18;2.58;;;;;;;19.66;63.67;100946.94;5048092;28;20033;-82
2021/07/05 13:08:04;;;;;;;2.65;2.03;;;;;;;19.76;64.40;100952.97;5044205;28;20506;-83
2021/07/05 13:10:50;;;;;;;3.92;2.45;;;;;;;19.64;64.61;100949.63;5048398;28;20482;-82
2021/07/05 13:13:24;;;;;;;3.75;2.42;;;;;;;19.72;64.47;100954.81;5036394;28;20043;-82
2021/07/05 13:16:02;;;;;;;5.82;2.40;;;;;;;19.69;65.68;100958.41;5027729;28;20029;-81
2021/07/05 13:18:51;;;;;;;2.92;1.95;;;;;;;19.64;64.84;100948.75;5030412;28;20163;-83
2021/07/05 13:22:02;;;;;;;5.35;2.60;;;;;;;19.71;64.69;100942.41;5044704;28;20048;-81
2021/07/05 13:24:47;;;;;;;4.70;2.30;;;;;;;19.87;64.41;100940.31;5045668;28;20555;-83
2021/07/05 13:27:43;;;;;;;2.30;1.88;;;;;;;19.92;64.54;100953.56;5034416;28;20124;-83
2021/07/05 13:30:21;;;;;;;3.25;2.10;;;;;;;20.01;64.46;100945.38;5051537;28;20025;-84
2021/07/05 13:33:20;;;;;;;3.22;2.25;;;;;;;20.18;62.91;100945.91;5023947;28;20057;-83
2021/07/05 13:36:17;;;;;;;2.28;1.70;;;;;;;20.34;62.47;100934.84;5027989;28;20041;-82
2021/07/05 13:38:53;;;;;;;2.15;1.40;;;;;;;21.26;60.91;100941.59;5018890;28;20050;-83
2021/07/05 13:41:41;;;;;;;2.40;1.27;;;;;;;22.36;61.57;100934.03;5031352;28;20040;-82
2021/07/05 13:44:44;;;;;;;2.28;1.67;;;;;;;23.49;53.45;100920.44;5034751;28;20499;-82
2021/07/05 13:47:46;;;;;;;4.80;1.55;;;;;;;23.56;54.72;100927.34;4979464;28;20049;-83
2021/07/05 13:53:48;;;;;;;2.25;1.27;;;;;;;23.61;51.79;100915.56;4996512;28;20025;-82
2021/07/05 13:57:03;;;;;;;1.85;1.20;;;;;;;24.23;54.45;100917.69;5018559;28;20037;-83
2021/07/05 14:00:02;;;;;;;2.17;1.00;;;;;;;24.58;51.43;100917.22;5033640;28;20045;-82
2021/07/05 14:02:40;;;;;;;1.02;0.80;;;;;;;25.15;49.23;100912.16;5001338;28;20553;-84
2021/07/05 14:05:29;;;;;;;2.40;1.20;;;;;;;25.28;49.26;100906.25;5018781;28;20037;-83
2021/07/05 14:08:26;;;;;;;3.40;1.30;;;;;;;25.90;48.80;100915.16;5018860;28;20033;-82
2021/07/05 14:11:29;;;;;;;;;;;;;;;;;;;;;
2021/07/05 14:14:17;;;;;;;;;;;;;;;;;;;;;
2021/07/05 14:17:01;;;;;;;2.28;1.30;;;;;;;25.04;49.76;100909.03;5030937;28;20510;-84
2021/07/05 14:20:40;;;;;;;3.15;1.30;;;;;;;24.53;49.71;100905.78;5013214;28;20423;-83
2021/07/05 14:23:52;;;;;;;6.07;1.80;;;;;;;24.43;48.65;100913.34;4986842;28;20037;-83
2021/07/05 14:26:39;;;;;;;4.75;1.63;;;;;;;24.02;52.40;100905.06;5014133;28;20484;-82
2021/07/05 14:29:14;;;;;;;2.22;1.40;;;;;;;24.01;52.21;100901.53;5007796;28;20492;-82
2021/07/05 14:31:43;;;;;;;2.00;1.13;;;;;;;24.08;49.56;100902.16;5017858;28;20045;-84
2021/07/05 14:34:21;;;;;;;2.75;1.20;;;;;;;23.71;47.94;100901.72;5012426;28;20056;-83
2021/07/05 14:37:06;;;;;;;;;;;;;;;;;;;;;
2021/07/05 14:40:06;;;;;;;2.03;1.35;;;;;;;22.75;50.03;100890.78;5022220;28;20792;-83
2021/07/05 14:42:36;;;;;;;2.13;1.20;;;;;;;22.59;51.45;100894.88;5027002;28;20879;-82
2021/07/05 14:45:20;;;;;;;2.33;1.40;;;;;;;22.17;54.05;100888.13;5022196;28;20131;-81
2021/07/05 14:48:16;;;;;;;2.65;1.50;;;;;;;22.31;54.57;100890.38;5022941;28;20095;-82
2021/07/05 14:51:13;;;;;;;2.38;1.55;;;;;;;22.68;53.51;100875.78;5011157;28;20048;-84